FW3213 Weather Reports


Display with metric or nautical units.
time (UTC)temp
F
wind
direction
speed
MPH
gust
MPH
rain 1hr
in
rain 24hr
in
rain mn
in
humidity
%
barometer
mb
20210620165217 73 282 5.0 7.0 0.00 0.00 0.00 22 1038.8
20210620164315 73 256 7.0 12.0 0.00 0.00 0.00 23 1038.8
20210620164215 72 259 7.0 9.0 0.00 0.00 0.00 23 1038.9
20210620163232 72 293 7.0 9.0 0.00 0.00 0.00 24 1039.0
20210620162318 71 293 6.0 9.0 0.00 0.00 0.00 24 1039.1
20210620161332 70 289 8.0 11.0 0.00 0.00 0.00 25 1039.0
20210620161214 70 304 7.0 11.0 0.00 0.00 0.00 25 1039.1
20210620160217 70 315 6.0 9.0 0.00 0.00 0.00 25 1039.1
20210620155215 69 278 4.0 6.0 0.00 0.00 0.00 24 1039.3
20210620154314 69 252 6.0 8.0 0.00 0.00 0.00 26 1039.1
20210620154231 69 291 7.0 9.0 0.00 0.00 0.00 25 1039.3
20210620153233 68 282 6.0 9.0 0.00 0.00 0.00 25 1039.3
20210620152232 68 279 7.0 9.0 0.00 0.00 0.00 27 1039.5
20210620151316 67 297 6.0 9.0 0.00 0.00 0.00 27 1039.3
20210620151215 67 318 6.0 9.0 0.00 0.00 0.00 27 1039.5
20210620151116 67 312 7.0 11.0 0.00 0.00 0.00 27 1039.5
20210620150117 67 270 5.0 7.0 0.00 0.00 0.00 28 1039.4
20210620145115 66 271 1.0 3.0 0.00 0.00 0.00 29 1039.6
20210620144131 65 312 3.0 5.0 0.00 0.00 0.00 31 1039.8
20210620143117 63 318 5.0 7.0 0.00 0.00 0.00 35 1040.0
20210620142115 63 247 1.0 1.0 0.00 0.00 0.00 35 1039.9
20210620141115 62 337 2.0 4.0 0.00 0.00 0.00 35 1039.9
20210620140115 61 315 2.0 3.0 0.00 0.00 0.00 37 1039.9
20210620140016 61 315 2.0 3.0 0.00 0.00 0.00 37 1039.9
20210620135015 59 292 2.0 4.0 0.00 0.00 0.00 41 1040.1
20210620134916 58 292 2.0 4.0 0.00 0.00 0.00 42 1040.0
20210620134815 58 292 3.0 5.0 0.00 0.00 0.00 42 1040.0
20210620133832 56 337 0.0 0.0 0.00 0.00 0.00 45 1040.2
20210620132917 55 337 0.0 0.0 0.00 0.00 0.00 45 1040.3
20210620131914 55 337 0.0 0.0 0.00 0.00 0.00 45 1040.3
20210620130917 54 337 0.0 0.0 0.00 0.00 0.00 45 1040.3
20210620125931 54 337 0.0 0.0 0.00 0.00 0.00 46 1040.3
20210620125016 53 337 0.0 0.0 0.00 0.00 0.00 45 1040.3
20210620124115 53 337 0.0 0.0 0.00 0.00 0.00 44 1040.2
20210620123214 53 337 0.0 0.0 0.00 0.00 0.00 42 1040.2
20210620122215 54 337 0.0 1.0 0.00 0.00 0.00 42 1040.3
20210620121215 54 337 2.0 2.0 0.00 0.00 0.00 42 1040.2
20210620121131 54 334 2.0 3.0 0.00 0.00 0.00 41 1040.2
20210620120115 54 337 1.0 2.0 0.00 0.00 0.00 41 1040.0
20210620120015 54 337 1.0 2.0 0.00 0.00 0.00 41 1040.2
20210620115015 54 337 0.0 1.0 0.00 0.00 0.00 41 1040.1
20210620114016 54 337 0.0 0.0 0.00 0.00 0.00 41 1039.9
20210620113031 53 337 0.0 1.0 0.00 0.00 0.00 41 1039.8
20210620112114 53 337 0.0 1.0 0.00 0.00 0.00 42 1039.7
20210620111115 53 337 0.0 1.0 0.00 0.00 0.00 42 1039.5
20210620110115 52 337 0.0 2.0 0.00 0.00 0.00 42 1039.5
20210620110014 52 337 0.0 0.0 0.00 0.00 0.00 43 1039.4
20210620105015 51 337 0.0 2.0 0.00 0.00 0.00 44 1039.3
20210620104914 51 337 1.0 2.0 0.00 0.00 0.00 44 1039.3
20210620104815 51 325 2.0 4.0 0.00 0.00 0.00 44 1039.3
20210620104715 51 344 2.0 3.0 0.00 0.00 0.00 44 1039.3
20210620103715 54 337 1.0 2.0 0.00 0.00 0.00 41 1039.3
20210620103618 54 337 1.0 2.0 0.00 0.00 0.00 41 1039.3
20210620102715 55 337 0.0 1.0 0.00 0.00 0.00 41 1039.3
20210620101715 54 337 1.0 2.0 0.00 0.00 0.00 41 1039.2
20210620100715 54 112 0.0 0.0 0.00 0.00 0.00 40 1039.0
20210620100614 54 112 0.0 0.0 0.00 0.00 0.00 41 1039.1
20210620095615 54 337 0.0 0.0 0.00 0.00 0.00 40 1039.3
20210620094617 55 337 0.0 0.0 0.00 0.00 0.00 39 1039.1
20210620093715 56 337 0.0 0.0 0.00 0.00 0.00 38 1039.3
20210620092716 57 337 0.0 1.0 0.00 0.00 0.00 37 1039.3
20210620091714 57 315 2.0 3.0 0.00 0.00 0.00 37 1039.3
20210620090715 57 292 1.0 3.0 0.00 0.00 0.00 36 1039.4
20210620090615 57 311 0.0 0.0 0.00 0.00 0.00 36 1039.3
20210620085617 58 22 0.0 0.0 0.00 0.00 0.00 34 1039.3
20210620084616 59 90 0.0 1.0 0.00 0.00 0.00 34 1039.4
20210620083714 60 150 1.0 2.0 0.00 0.00 0.00 33 1039.3
20210620083616 60 269 1.0 4.0 0.00 0.00 0.00 33 1039.5
20210620082617 60 265 3.0 5.0 0.00 0.00 0.00 34 1039.3
20210620081714 58 225 2.0 3.0 0.00 0.00 0.00 35 1039.3
20210620080714 56 239 4.0 7.0 0.00 0.00 0.00 37 1039.3
20210620080614 56 180 2.0 4.0 0.00 0.00 0.00 36 1039.3
20210620075616 57 63 0.0 1.0 0.00 0.00 0.00 35 1039.3
20210620074714 57 82 0.0 0.0 0.00 0.00 0.00 35 1039.3
20210620073714 58 337 1.0 3.0 0.00 0.00 0.00 34 1039.1
20210620073615 58 337 2.0 3.0 0.00 0.00 0.00 33 1039.2
20210620073515 58 337 2.0 2.0 0.00 0.00 0.00 34 1039.1
20210620072515 59 337 3.0 4.0 0.00 0.00 0.00 32 1039.4
20210620072413 59 337 2.0 4.0 0.00 0.00 0.00 32 1039.3
20210620072315 59 337 3.0 4.0 0.00 0.00 0.00 31 1039.6
20210620072214 59 273 2.0 4.0 0.00 0.00 0.00 31 1039.3
20210620071232 60 346 0.0 0.0 0.00 0.00 0.00 30 1039.0
20210620071114 61 337 1.0 3.0 0.00 0.00 0.00 30 1039.0
20210620070133 62 22 0.0 1.0 0.00 0.00 0.00 30 1038.8
20210620070014 62 22 0.0 1.0 0.00 0.00 0.00 30 1038.7
20210620065931 62 100 0.0 2.0 0.00 0.00 0.00 29 1038.8
20210620064913 62 156 1.0 3.0 0.00 0.00 0.00 30 1038.8
20210620063915 61 267 2.0 4.0 0.00 0.00 0.00 30 1038.9
20210620062915 60 34 0.0 3.0 0.00 0.00 0.00 31 1038.9
20210620062015 59 202 0.0 0.0 0.00 0.00 0.00 32 1038.9
20210620061114 59 180 0.0 1.0 0.00 0.00 0.00 32 1039.0
20210620060114 59 337 1.0 2.0 0.00 0.00 0.00 32 1038.9
20210620060019 58 337 1.0 2.0 0.00 0.00 0.00 33 1038.9
20210620055019 58 337 2.0 2.0 0.00 0.00 0.00 33 1039.0
20210620054118 58 45 0.0 0.0 0.00 0.00 0.00 33 1038.8
20210620053133 59 90 0.0 0.0 0.00 0.00 0.00 33 1038.9
20210620053019 59 90 0.0 1.0 0.00 0.00 0.00 32 1039.0
20210620052019 59 90 1.0 2.0 0.00 0.00 0.00 32 1039.3
20210620051934 59 90 1.0 2.0 0.00 0.00 0.00 32 1039.2
20210620051019 60 114 0.0 2.0 0.00 0.00 0.00 32 1039.2
20210620050117 60 87 1.0 4.0 0.00 0.00 0.00 33 1039.1
20210620050019 59 112 3.0 5.0 0.00 0.00 0.00 34 1039.2
20210620045018 59 135 2.0 3.0 0.00 0.00 0.00 35 1039.1
20210620044018 60 112 3.0 4.0 0.00 0.00 0.00 32 1039.1
20210620043117 63 115 2.0 4.0 0.00 0.00 0.00 27 1039.0
20210620042118 64 293 2.0 3.0 0.00 0.00 0.00 24 1038.8
20210620041119 66 285 1.0 2.0 0.00 0.00 0.00 22 1038.9
20210620040136 66 284 4.0 7.0 0.00 0.00 0.00 21 1038.6
20210620040017 66 296 6.0 8.0 0.00 0.00 0.00 22 1038.6
20210620035019 66 303 8.0 14.0 0.00 0.00 0.00 22 1038.5
20210620034019 65 302 4.0 6.0 0.00 0.00 0.00 25 1038.6
20210620033117 63 345 4.0 11.0 0.00 0.00 0.00 29 1038.6
20210620032118 61 342 0.0 1.0 0.00 0.00 0.00 33 1038.2
20210620031119 61 22 0.0 0.0 0.00 0.00 0.00 34 1038.6
20210620030119 61 292 2.0 4.0 0.00 0.00 0.00 35 1038.6
20210620030017 61 296 4.0 5.0 0.00 0.00 0.00 35 1038.7
20210620025935 61 320 3.0 5.0 0.00 0.00 0.00 35 1038.6
20210620024918 62 271 2.0 3.0 0.00 0.00 0.00 35 1038.6
20210620024819 62 279 1.0 1.0 0.00 0.00 0.00 35 1038.7
20210620024735 62 299 2.0 4.0 0.00 0.00 0.00 35 1038.7
20210620023821 63 292 3.0 5.0 0.00 0.00 0.00 34 1038.7
20210620022917 63 292 3.0 5.0 0.00 0.00 0.00 34 1038.8
20210620021919 63 280 5.0 8.0 0.00 0.00 0.00 34 1038.9
20210620020918 64 252 4.0 8.0 0.00 0.00 0.00 33 1038.9
20210620015917 64 230 4.0 6.0 0.00 0.00 0.00 32 1039.2
20210620014918 66 258 4.0 5.0 0.00 0.00 0.00 31 1039.7
20210620014818 66 270 3.0 5.0 0.00 0.00 0.00 32 1039.8
20210620014719 66 256 3.0 5.0 0.00 0.00 0.00 32 1039.8
20210620013718 66 277 4.0 7.0 0.00 0.00 0.00 31 1039.8
20210620012719 67 277 7.0 11.0 0.00 0.00 0.00 30 1039.7
20210620011718 66 241 5.0 7.0 0.00 0.00 0.00 30 1039.7
20210620010718 66 247 3.0 4.0 0.00 0.00 0.00 32 1039.3
20210620010619 66 242 3.0 4.0 0.00 0.00 0.00 31 1039.3
20210620010518 66 181 4.0 7.0 0.00 0.00 0.00 31 1039.2
20210620005617 66 112 0.0 1.0 0.00 0.00 0.00 29 1038.8
20210620004619 67 286 3.0 5.0 0.00 0.00 0.00 28 1038.9
20210620003717 67 311 4.0 9.0 0.00 0.00 0.00 28 1038.9
20210620003617 66 324 4.0 8.0 0.00 0.00 0.00 29 1038.8
20210620002618 66 270 1.0 3.0 0.00 0.00 0.00 31 1038.7
20210620001620 66 259 3.0 5.0 0.00 0.00 0.00 33 1039.0
20210620000717 65 279 5.0 8.0 0.00 0.00 0.00 34 1039.3
20210620000619 65 269 3.0 4.0 0.00 0.00 0.00 34 1039.3
20210619235717 63 291 3.0 5.0 0.00 0.00 0.00 35 1039.3
20210619234719 63 293 8.0 14.0 0.00 0.00 0.00 35 1039.5
20210619233734 62 300 11.0 18.0 0.00 0.00 0.00 38 1039.8
20210619233618 62 293 12.0 18.0 0.00 0.00 0.00 38 1039.9
20210619232620 62 299 11.0 17.0 0.00 0.00 0.00 37 1040.2
20210619231619 63 293 10.0 18.0 0.00 0.00 0.00 36 1040.5
20210619230718 65 296 8.0 12.0 0.00 0.00 0.00 34 1040.9
20210619230617 66 292 13.0 21.0 0.00 0.00 0.00 34 1040.9
20210619225619 69 263 6.0 8.0 0.00 0.00 0.00 33 1040.7
20210619224619 72 304 4.0 6.0 0.00 0.00 0.00 27 1040.1
20210619223717 73 307 6.0 10.0 0.00 0.00 0.00 24 1039.6
20210619223619 73 282 4.0 7.0 0.00 0.00 0.00 24 1039.4
20210619222618 74 308 5.0 7.0 0.00 0.00 0.00 22 1039.0
20210619221619 75 292 4.0 6.0 0.00 0.00 0.00 22 1038.8
20210619220717 76 292 5.0 6.0 0.00 0.00 0.00 21 1038.5
20210619220617 76 289 5.0 8.0 0.00 0.00 0.00 21 1038.6
20210619215634 75 296 5.0 8.0 0.00 0.00 0.00 21 1038.9
20210619214717 76 310 7.0 10.0 0.00 0.00 0.00 21 1038.9
20210619213717 77 262 6.0 9.0 0.00 0.00 0.00 21 1039.1
20210619212717 76 275 5.0 8.0 0.00 0.00 0.00 20 1039.7
20210619211718 77 279 9.0 17.0 0.00 0.00 0.00 20 1039.7
20210619210719 78 298 8.0 11.0 0.00 0.00 0.00 21 1040.0
20210619210618 78 298 6.0 8.0 0.00 0.00 0.00 21 1040.0
20210619210517 78 280 6.0 8.0 0.00 0.00 0.00 21 1040.0
20210619205532 76 255 5.0 7.0 0.00 0.00 0.00 21 1040.2
20210619204619 77 312 4.0 7.0 0.00 0.00 0.00 22 1040.2
20210619203618 75 270 2.0 5.0 0.00 0.00 0.00 23 1040.3
20210619202621 74 292 5.0 8.0 0.00 0.00 0.00 23 1040.3
20210619201717 75 288 7.0 9.0 0.00 0.00 0.00 22 1040.2
20210619200718 76 252 3.0 5.0 0.00 0.00 0.00 24 1040.2
20210619195717 75 277 8.0 13.0 0.00 0.00 0.00 24 1040.8
20210619194733 75 283 7.0 10.0 0.00 0.00 0.00 22 1041.1
20210619193735 73 299 7.0 12.0 0.00 0.00 0.00 26 1041.1
20210619193619 73 304 8.0 12.0 0.00 0.00 0.00 26 1041.2
20210619192618 70 282 5.0 9.0 0.00 0.00 0.00 30 1041.2
20210619191621 69 288 4.0 7.0 0.00 0.00 0.00 32 1041.4
20210619190717 68 294 4.0 9.0 0.00 0.00 0.00 32 1041.5
20210619190617 68 294 4.0 5.0 0.00 0.00 0.00 32 1041.5
20210619190518 68 292 5.0 7.0 0.00 0.00 0.00 31 1041.6
20210619185518 68 296 6.0 10.0 0.00 0.00 0.00 30 1041.6
20210619185418 68 292 6.0 8.0 0.00 0.00 0.00 30 1041.7
20210619185317 69 305 8.0 10.0 0.00 0.00 0.00 29 1041.6
20210619184417 69 292 7.0 13.0 0.00 0.00 0.00 27 1041.4
20210619183517 71 300 7.0 12.0 0.00 0.00 0.00 26 1041.4
20210619182517 71 270 0.0 3.0 0.00 0.00 0.00 26 1041.5
20210619182420 71 292 0.0 2.0 0.00 0.00 0.00 26 1041.5
20210619182317 71 292 2.0 5.0 0.00 0.00 0.00 26 1041.5
20210619181319 72 284 0.0 2.0 0.00 0.00 0.00 27 1041.6
20210619180333 72 112 0.0 0.0 0.00 0.00 0.00 26 1041.5
20210619175318 72 151 1.0 2.0 0.00 0.00 0.00 25 1041.5
20210619174318 72 157 0.0 1.0 0.00 0.00 0.00 24 1041.8
20210619174232 72 179 0.0 1.0 0.00 0.00 0.00 24 1041.8
20210619174118 72 292 0.0 1.0 0.00 0.00 0.00 23 1041.7
20210619173119 73 292 3.0 5.0 0.00 0.00 0.00 23 1041.7
20210619173017 73 294 4.0 5.0 0.00 0.00 0.00 23 1041.7
20210619172016 76 295 6.0 7.0 0.00 0.00 0.00 23 1041.8
20210619171019 75 292 2.0 4.0 0.00 0.00 0.00 25 1042.0
20210619170117 73 336 3.0 4.0 0.00 0.00 0.00 26 1041.9
20210619170038 73 341 0.0 2.0 0.00 0.00 0.00 26 1042.0